createdAt,value
2023-03-02T00:00:22.260Z,990.146
2023-03-02T00:01:22.851Z,990.242
2023-03-02T00:02:22.690Z,990.178
2023-03-02T00:03:22.683Z,990.145
2023-03-02T00:04:22.524Z,990.164
2023-03-02T00:05:22.171Z,990.154
2023-03-02T00:06:22.747Z,990.239
2023-03-02T00:07:22.430Z,990.257
2023-03-02T00:08:22.063Z,990.133
2023-03-02T00:09:22.738Z,990.151
2023-03-02T00:10:22.479Z,990.036
2023-03-02T00:11:22.114Z,990.099
2023-03-02T00:12:22.768Z,990.152
2023-03-02T00:13:22.381Z,990.056
2023-03-02T00:14:22.032Z,990.098
2023-03-02T00:15:22.826Z,990.143
2023-03-02T00:16:22.842Z,990.161
2023-03-02T00:17:22.441Z,990.081
2023-03-02T00:18:22.014Z,989.993
2023-03-02T00:19:22.648Z,989.961
2023-03-02T00:20:22.312Z,990.023
2023-03-02T00:21:22.970Z,990.013
2023-03-02T00:22:22.560Z,990.000
2023-03-02T00:23:22.157Z,990.030
2023-03-02T00:24:22.795Z,989.953
2023-03-02T00:25:22.468Z,989.844
2023-03-02T00:26:22.075Z,989.962
2023-03-02T00:27:22.741Z,990.061
2023-03-02T00:28:22.327Z,989.933
2023-03-02T00:29:22.989Z,989.922
2023-03-02T00:30:22.630Z,989.877
2023-03-02T00:31:22.438Z,989.931
2023-03-02T00:32:22.352Z,989.936
2023-03-02T00:33:22.019Z,989.969
2023-03-02T00:34:22.795Z,989.854
2023-03-02T00:35:22.487Z,989.957
2023-03-02T00:36:22.355Z,989.743
2023-03-02T00:37:22.044Z,989.953
2023-03-02T00:38:22.694Z,989.832
2023-03-02T00:39:22.370Z,989.951
2023-03-02T00:40:22.119Z,989.803
2023-03-02T00:41:23.005Z,989.905
2023-03-02T00:42:22.651Z,989.863
2023-03-02T00:43:22.323Z,989.827
2023-03-02T00:44:22.938Z,989.916
2023-03-02T00:45:22.610Z,989.870
2023-03-02T00:46:22.386Z,989.837
2023-03-02T00:47:22.295Z,989.773
2023-03-02T00:48:22.499Z,989.736
2023-03-02T00:49:22.138Z,989.759
2023-03-02T00:50:22.826Z,989.794
2023-03-02T00:51:22.511Z,989.667
2023-03-02T00:52:22.165Z,989.753
2023-03-02T00:53:22.792Z,989.617
2023-03-02T00:54:22.449Z,989.726
2023-03-02T00:55:22.118Z,989.672
2023-03-02T00:56:22.037Z,989.710
2023-03-02T00:57:22.644Z,989.704
2023-03-02T00:58:22.257Z,989.553
2023-03-02T00:59:22.949Z,989.596
2023-03-02T01:00:22.556Z,989.690
2023-03-02T01:01:22.232Z,989.448
2023-03-02T01:02:22.237Z,989.603
2023-03-02T01:03:22.404Z,989.525
2023-03-02T01:04:22.029Z,989.526
2023-03-02T01:05:22.724Z,989.359
2023-03-02T01:06:22.389Z,989.500
2023-03-02T01:07:22.006Z,989.496
2023-03-02T01:08:22.725Z,989.483
2023-03-02T01:09:22.404Z,989.482
2023-03-02T01:10:22.051Z,989.483
2023-03-02T01:11:22.680Z,989.403
2023-03-02T01:12:22.264Z,989.431
2023-03-02T01:13:22.952Z,989.445
2023-03-02T01:14:22.588Z,989.351
2023-03-02T01:15:22.254Z,989.319
2023-03-02T01:16:23.000Z,989.440
2023-03-02T01:17:22.681Z,989.370
2023-03-02T01:18:22.307Z,989.498
2023-03-02T01:19:22.065Z,989.314
2023-03-02T01:20:22.673Z,989.327
2023-03-02T01:21:22.382Z,989.318
2023-03-02T01:22:22.978Z,989.379
2023-03-02T01:23:22.605Z,989.277
2023-03-02T01:24:22.220Z,989.276
2023-03-02T01:25:22.865Z,989.348
2023-03-02T01:26:22.440Z,989.319
2023-03-02T01:27:22.121Z,989.221
2023-03-02T01:28:22.764Z,989.304
2023-03-02T01:29:22.371Z,989.165
2023-03-02T01:30:22.091Z,989.208
2023-03-02T01:31:22.753Z,989.165
2023-03-02T01:32:22.776Z,989.142
2023-03-02T01:33:22.503Z,989.223
2023-03-02T01:34:22.222Z,989.080
2023-03-02T01:35:22.949Z,989.168
2023-03-02T01:36:22.833Z,989.128
2023-03-02T01:37:22.394Z,989.086
2023-03-02T01:38:22.062Z,989.130
2023-03-02T01:39:22.994Z,989.093
2023-03-02T01:40:22.774Z,989.146
2023-03-02T01:41:22.441Z,989.115
2023-03-02T01:42:22.166Z,989.104
2023-03-02T01:43:22.772Z,989.110
2023-03-02T01:44:22.411Z,989.053
2023-03-02T01:45:22.229Z,989.170
2023-03-02T01:46:22.129Z,989.157
2023-03-02T01:47:22.778Z,989.091
2023-03-02T01:48:22.361Z,989.040
2023-03-02T01:49:22.036Z,988.975
2023-03-02T01:50:22.627Z,989.061
2023-03-02T01:51:22.248Z,989.099
2023-03-02T01:52:22.912Z,988.991
2023-03-02T01:53:22.568Z,989.047
2023-03-02T01:54:22.196Z,989.000
2023-03-02T01:55:22.856Z,988.901
2023-03-02T01:56:22.471Z,988.979
2023-03-02T01:57:22.152Z,989.068
2023-03-02T01:58:22.886Z,989.031
2023-03-02T01:59:22.543Z,989.002
2023-03-02T02:00:22.229Z,988.976
2023-03-02T02:01:22.152Z,989.078
2023-03-02T02:02:22.828Z,989.006
2023-03-02T02:03:22.483Z,989.049
2023-03-02T02:04:22.340Z,988.940
2023-03-02T02:05:22.986Z,989.020
2023-03-02T02:06:22.678Z,989.044
2023-03-02T02:07:22.237Z,988.962
2023-03-02T02:08:22.965Z,988.970
2023-03-02T02:09:22.787Z,988.998
2023-03-02T02:10:22.414Z,988.856
2023-03-02T02:11:22.164Z,988.908
2023-03-02T02:12:22.810Z,988.881
2023-03-02T02:13:22.505Z,988.884
2023-03-02T02:14:22.116Z,988.773
2023-03-02T02:15:22.817Z,988.797
2023-03-02T02:16:22.701Z,988.754
2023-03-02T02:17:22.661Z,988.788
2023-03-02T02:18:22.326Z,988.825
2023-03-02T02:19:22.956Z,988.836
2023-03-02T02:20:22.660Z,988.808
2023-03-02T02:21:22.230Z,988.812
2023-03-02T02:22:22.846Z,988.735
2023-03-02T02:23:22.548Z,988.747
2023-03-02T02:24:22.182Z,988.689
2023-03-02T02:25:22.877Z,988.758
2023-03-02T02:26:22.529Z,988.728
2023-03-02T02:27:22.181Z,988.712
2023-03-02T02:28:22.867Z,988.792
2023-03-02T02:29:22.501Z,988.793
2023-03-02T02:30:22.232Z,988.789
2023-03-02T02:31:23.010Z,988.747
2023-03-02T02:32:23.057Z,988.740
2023-03-02T02:33:22.983Z,988.893
2023-03-02T02:34:23.003Z,988.663
2023-03-02T02:35:22.685Z,988.690
2023-03-02T02:36:22.753Z,988.752
2023-03-02T02:37:22.512Z,988.797
2023-03-02T02:38:22.168Z,988.786
2023-03-02T02:39:22.823Z,988.587
2023-03-02T02:40:22.483Z,988.597
2023-03-02T02:41:22.220Z,988.684
2023-03-02T02:42:22.998Z,988.738
2023-03-02T02:43:22.689Z,988.697
2023-03-02T02:44:22.399Z,988.754
2023-03-02T02:45:22.279Z,988.694
2023-03-02T02:46:22.352Z,988.729
2023-03-02T02:47:22.051Z,988.655
2023-03-02T02:48:22.752Z,988.604
2023-03-02T02:49:22.343Z,988.725
2023-03-02T02:50:22.140Z,988.693
2023-03-02T02:51:22.757Z,988.637
2023-03-02T02:52:22.395Z,988.653
2023-03-02T02:53:22.176Z,988.608
2023-03-02T02:54:22.894Z,988.656
2023-03-02T02:55:22.535Z,988.711
2023-03-02T02:56:22.124Z,988.547
2023-03-02T02:57:22.756Z,988.660
2023-03-02T02:58:22.373Z,988.640
2023-03-02T02:59:22.044Z,988.666
2023-03-02T03:00:22.705Z,988.552
2023-03-02T03:01:22.472Z,988.542
2023-03-02T03:02:22.351Z,988.678
2023-03-02T03:03:22.082Z,988.657
2023-03-02T03:04:22.863Z,988.688
2023-03-02T03:05:22.769Z,988.647
2023-03-02T03:06:22.601Z,988.686
2023-03-02T03:07:22.375Z,988.640
2023-03-02T03:08:22.026Z,988.746
2023-03-02T03:09:22.665Z,988.614
2023-03-02T03:10:22.693Z,988.756
2023-03-02T03:11:22.496Z,988.766
2023-03-02T03:12:22.196Z,988.612
2023-03-02T03:13:22.934Z,988.723
2023-03-02T03:14:22.584Z,988.596
2023-03-02T03:15:22.215Z,988.662
2023-03-02T03:16:22.905Z,988.683
2023-03-02T03:17:22.953Z,988.632
2023-03-02T03:18:22.580Z,988.665
2023-03-02T03:19:22.358Z,988.576
2023-03-02T03:20:22.075Z,988.641
2023-03-02T03:21:22.644Z,988.625
2023-03-02T03:22:22.552Z,988.563
2023-03-02T03:23:22.249Z,988.603
2023-03-02T03:24:22.054Z,988.569
2023-03-02T03:25:22.727Z,988.641
2023-03-02T03:26:22.825Z,988.678
2023-03-02T03:27:22.703Z,988.565
2023-03-02T03:28:22.428Z,988.701
2023-03-02T03:29:22.043Z,988.644
2023-03-02T03:30:22.713Z,988.696
2023-03-02T03:31:22.680Z,988.546
2023-03-02T03:32:22.731Z,988.599
2023-03-02T03:33:22.666Z,988.654
2023-03-02T03:34:22.509Z,988.621
2023-03-02T03:35:22.559Z,988.574
2023-03-02T03:36:22.432Z,988.599
2023-03-02T03:37:22.046Z,988.638
2023-03-02T03:38:22.704Z,988.637
2023-03-02T03:39:22.371Z,988.722
2023-03-02T03:40:22.090Z,988.738
2023-03-02T03:41:22.697Z,988.619
2023-03-02T03:42:22.390Z,988.661
2023-03-02T03:43:22.030Z,988.704
2023-03-02T03:44:22.633Z,988.638
2023-03-02T03:45:22.353Z,988.667
2023-03-02T03:46:22.267Z,988.564
2023-03-02T03:47:22.914Z,988.695
2023-03-02T03:48:22.572Z,988.654
2023-03-02T03:49:22.275Z,988.771
2023-03-02T03:51:43.587Z,988.653
2023-03-02T03:52:36.540Z,988.598
2023-03-02T03:53:36.602Z,988.746
2023-03-02T03:54:36.544Z,988.722
2023-03-02T03:55:36.490Z,988.739
2023-03-02T03:56:36.352Z,988.722
2023-03-02T03:57:36.372Z,988.599
2023-03-02T03:58:36.541Z,988.548
2023-03-02T03:59:36.587Z,988.713
2023-03-02T04:00:36.810Z,988.735
2023-03-02T04:01:36.893Z,988.550
2023-03-02T04:02:36.214Z,988.596
2023-03-02T04:03:36.405Z,988.663
2023-03-02T04:04:36.470Z,988.627
2023-03-02T04:05:36.654Z,988.692
2023-03-02T04:06:36.594Z,988.599
2023-03-02T04:07:36.586Z,988.459
2023-03-02T04:08:36.522Z,988.596
2023-03-02T04:09:36.518Z,988.516
2023-03-02T04:10:36.534Z,988.404
2023-03-02T04:11:36.478Z,988.517
2023-03-02T04:12:36.482Z,988.516
2023-03-02T04:13:36.364Z,988.604
2023-03-02T04:14:36.347Z,988.555
2023-03-02T04:15:36.378Z,988.422
2023-03-02T04:16:37.087Z,988.554
2023-03-02T04:17:37.058Z,988.438
2023-03-02T04:18:37.218Z,988.528
2023-03-02T04:19:36.165Z,988.508
2023-03-02T04:20:36.132Z,988.525
2023-03-02T04:21:36.144Z,988.421
2023-03-02T04:22:36.317Z,988.415
2023-03-02T04:23:36.186Z,988.305
2023-03-02T04:24:36.133Z,988.350
2023-03-02T04:25:36.126Z,988.459
2023-03-02T04:26:36.085Z,988.442
2023-03-02T04:27:36.988Z,988.402
2023-03-02T04:28:37.057Z,988.392
2023-03-02T04:29:37.001Z,988.390
2023-03-02T04:30:37.051Z,988.375
2023-03-02T04:31:36.369Z,988.352
2023-03-02T04:32:36.558Z,988.302
2023-03-02T04:33:36.445Z,988.327
2023-03-02T04:34:36.370Z,988.447
2023-03-02T04:35:36.340Z,988.423
2023-03-02T04:36:36.614Z,988.540
2023-03-02T04:37:36.814Z,988.418
2023-03-02T04:38:36.719Z,988.446
2023-03-02T04:39:36.654Z,988.365
2023-03-02T04:40:36.570Z,988.485
2023-03-02T04:41:36.600Z,988.320
2023-03-02T04:42:36.620Z,988.390
2023-03-02T04:43:36.550Z,988.447
2023-03-02T04:44:36.496Z,988.462
2023-03-02T04:45:36.546Z,988.508
2023-03-02T04:46:36.719Z,988.366
2023-03-02T04:47:36.036Z,988.484
2023-03-02T04:48:36.202Z,988.437
2023-03-02T04:49:36.102Z,988.520
2023-03-02T04:50:37.005Z,988.498
2023-03-02T04:51:36.914Z,988.468
2023-03-02T04:52:36.913Z,988.428
2023-03-02T04:53:36.844Z,988.478
2023-03-02T04:54:36.777Z,988.289
2023-03-02T04:55:36.786Z,988.381
2023-03-02T04:56:36.790Z,988.402
2023-03-02T04:57:36.773Z,988.473
2023-03-02T04:58:36.769Z,988.356
2023-03-02T04:59:36.770Z,988.362
2023-03-02T05:00:36.736Z,988.272
2023-03-02T05:01:36.674Z,988.421
2023-03-02T05:02:36.825Z,988.349
2023-03-02T05:03:36.776Z,988.327
2023-03-02T05:04:36.898Z,988.359
2023-03-02T05:05:36.099Z,988.348
2023-03-02T05:06:36.059Z,988.297
2023-03-02T05:07:37.043Z,988.174
2023-03-02T05:08:36.991Z,988.214
2023-03-02T05:09:37.007Z,988.309
2023-03-02T05:10:37.015Z,988.419
2023-03-02T05:11:36.930Z,988.345
2023-03-02T05:12:36.875Z,988.227
2023-03-02T05:13:36.841Z,988.260
2023-03-02T05:14:36.783Z,988.313
2023-03-02T05:15:36.701Z,988.312
2023-03-02T05:16:37.047Z,988.275
2023-03-02T05:17:36.101Z,988.289
2023-03-02T05:18:36.057Z,988.351
2023-03-02T05:19:36.437Z,988.380
2023-03-02T05:20:36.276Z,988.285
2023-03-02T05:21:36.246Z,988.406
2023-03-02T05:22:36.647Z,988.306
2023-03-02T05:23:36.490Z,988.258
2023-03-02T05:24:36.530Z,988.154
2023-03-02T05:25:36.703Z,988.202
2023-03-02T05:26:36.699Z,988.271
2023-03-02T05:27:36.710Z,988.305
2023-03-02T05:28:36.614Z,988.356
2023-03-02T05:29:36.567Z,988.285
2023-03-02T05:30:36.697Z,988.247
2023-03-02T05:31:36.764Z,988.342
2023-03-02T05:32:36.240Z,988.259
2023-03-02T05:33:36.182Z,988.353
2023-03-02T05:34:36.191Z,988.389
2023-03-02T05:35:36.897Z,988.363
2023-03-02T05:36:36.662Z,988.271
2023-03-02T05:37:36.903Z,988.287
2023-03-02T05:38:36.925Z,988.407
2023-03-02T05:39:36.911Z,988.374
2023-03-02T05:40:36.906Z,988.437
2023-03-02T05:41:36.885Z,988.417
2023-03-02T05:42:36.893Z,988.448
2023-03-02T05:43:36.799Z,988.450
2023-03-02T05:44:36.790Z,988.559
2023-03-02T05:45:36.738Z,988.430
2023-03-02T05:46:36.901Z,988.402
2023-03-02T05:47:36.206Z,988.544
2023-03-02T05:48:36.155Z,988.461
2023-03-02T05:49:36.119Z,988.565
2023-03-02T05:50:37.031Z,988.531
2023-03-02T05:51:37.018Z,988.375
2023-03-02T05:52:36.942Z,988.476
2023-03-02T05:53:36.897Z,988.604
2023-03-02T05:54:36.831Z,988.530
2023-03-02T05:55:36.673Z,988.479
2023-03-02T05:56:36.659Z,988.581
2023-03-02T05:57:36.553Z,988.474
2023-03-02T05:58:36.499Z,988.504
2023-03-02T05:59:36.474Z,988.502
2023-03-02T06:00:36.384Z,988.627
2023-03-02T06:01:36.519Z,988.668
2023-03-02T06:02:36.867Z,988.637
2023-03-02T06:03:36.108Z,988.695
2023-03-02T06:04:36.118Z,988.565
2023-03-02T06:05:36.961Z,988.736
2023-03-02T06:06:36.231Z,988.784
2023-03-02T06:07:36.349Z,988.707
2023-03-02T06:08:36.250Z,988.690
2023-03-02T06:09:36.397Z,988.652
2023-03-02T06:10:36.356Z,988.743
2023-03-02T06:11:36.354Z,988.756
2023-03-02T06:12:36.298Z,988.622
2023-03-02T06:13:36.311Z,988.722
2023-03-02T06:14:36.334Z,988.841
2023-03-02T06:15:36.449Z,988.785
2023-03-02T06:16:36.758Z,988.774
2023-03-02T06:17:37.010Z,988.817
2023-03-02T06:18:37.144Z,988.788
2023-03-02T06:19:36.642Z,988.886
2023-03-02T06:20:36.499Z,988.825
2023-03-02T06:21:36.457Z,988.863
2023-03-02T06:22:36.517Z,988.879
2023-03-02T06:23:36.487Z,988.837
2023-03-02T06:24:36.434Z,988.842
2023-03-02T06:25:36.341Z,988.843
2023-03-02T06:26:36.769Z,988.934
2023-03-02T06:27:36.590Z,988.932
2023-03-02T06:28:46.413Z,988.931
2023-03-02T06:29:36.503Z,988.995
2023-03-02T06:30:36.453Z,988.854
2023-03-02T06:31:36.336Z,989.009
2023-03-02T06:32:36.659Z,989.033
2023-03-02T06:33:36.661Z,988.989
2023-03-02T06:34:36.554Z,988.932
2023-03-02T06:35:36.953Z,989.018
2023-03-02T06:36:36.571Z,989.067
2023-03-02T06:37:36.634Z,988.929
2023-03-02T06:38:36.549Z,988.855
2023-03-02T06:39:36.562Z,988.913
2023-03-02T06:40:36.854Z,988.885
2023-03-02T06:41:36.830Z,989.059
2023-03-02T06:42:36.891Z,989.023
2023-03-02T06:43:36.922Z,989.068
2023-03-02T06:44:36.814Z,989.056
2023-03-02T06:45:36.853Z,989.037
2023-03-02T06:46:36.121Z,988.989
2023-03-02T06:47:37.028Z,989.050
2023-03-02T06:48:36.398Z,988.939
2023-03-02T06:49:36.349Z,988.952
2023-03-02T06:50:36.313Z,989.050
2023-03-02T06:51:36.207Z,988.933
2023-03-02T06:52:36.108Z,989.048
2023-03-02T06:53:36.086Z,988.989
2023-03-02T06:54:37.025Z,989.005
2023-03-02T06:55:36.991Z,989.024
2023-03-02T06:56:36.987Z,989.003
2023-03-02T06:57:36.159Z,989.001
2023-03-02T06:58:36.294Z,989.028
2023-03-02T06:59:36.347Z,989.078
2023-03-02T07:00:36.472Z,989.094
2023-03-02T07:01:36.713Z,989.105
2023-03-02T07:02:36.758Z,989.112
2023-03-02T07:03:36.808Z,989.069
2023-03-02T07:04:36.778Z,989.151
2023-03-02T07:05:36.769Z,989.139
2023-03-02T07:06:36.834Z,989.190
2023-03-02T07:07:36.767Z,989.216
2023-03-02T07:08:36.745Z,989.227
2023-03-02T07:09:36.632Z,988.996
2023-03-02T07:10:36.582Z,989.180
2023-03-02T07:11:36.518Z,989.133
2023-03-02T07:12:36.575Z,989.069
2023-03-02T07:13:36.650Z,989.049
2023-03-02T07:14:36.697Z,989.072
2023-03-02T07:15:36.863Z,988.995
2023-03-02T07:16:36.817Z,989.169
2023-03-02T07:17:37.006Z,989.073
2023-03-02T07:18:37.013Z,989.151
2023-03-02T07:19:37.676Z,989.053
2023-03-02T07:20:36.399Z,989.111
2023-03-02T07:21:36.319Z,989.069
2023-03-02T07:22:36.258Z,989.175
2023-03-02T07:23:36.269Z,989.030
2023-03-02T07:24:36.137Z,989.170
2023-03-02T07:25:36.100Z,989.150
2023-03-02T07:26:37.041Z,988.980
2023-03-02T07:27:37.021Z,989.108
2023-03-02T07:28:36.976Z,989.109
2023-03-02T07:29:36.935Z,989.042
2023-03-02T07:30:36.941Z,989.034
2023-03-02T07:31:36.990Z,989.129
2023-03-02T07:32:36.888Z,989.103
2023-03-02T07:33:36.919Z,989.125
2023-03-02T07:34:36.872Z,989.141
2023-03-02T07:35:36.915Z,989.195
2023-03-02T07:36:36.995Z,989.136
2023-03-02T07:37:37.001Z,989.121
2023-03-02T07:39:36.898Z,989.142
2023-03-02T07:40:36.863Z,989.092
2023-03-02T07:41:36.817Z,989.151
2023-03-02T07:42:36.730Z,989.139
2023-03-02T07:43:36.733Z,989.059
2023-03-02T07:44:36.642Z,989.168
2023-03-02T07:45:36.654Z,989.145
2023-03-02T07:46:36.770Z,989.161
2023-03-02T07:47:36.801Z,989.123
2023-03-02T07:48:36.792Z,989.154
2023-03-02T07:49:36.692Z,989.250
2023-03-02T07:50:36.674Z,989.274
2023-03-02T07:51:36.568Z,989.268
2023-03-02T07:52:36.476Z,989.230
2023-03-02T07:53:36.344Z,989.216
2023-03-02T07:54:36.296Z,989.167
2023-03-02T07:55:36.221Z,989.126
2023-03-02T07:56:36.221Z,989.307
2023-03-02T07:57:36.117Z,989.146
2023-03-02T07:58:37.046Z,989.263
2023-03-02T07:59:36.062Z,989.148
2023-03-02T08:00:37.010Z,989.301
2023-03-02T08:01:37.031Z,989.165
2023-03-02T08:02:36.552Z,989.209
2023-03-02T08:03:36.830Z,989.192
2023-03-02T08:04:36.779Z,989.203
2023-03-02T08:05:36.952Z,989.264
2023-03-02T08:06:36.920Z,989.164
2023-03-02T08:07:36.904Z,989.243
2023-03-02T08:08:37.076Z,989.265
2023-03-02T08:09:37.053Z,989.211
2023-03-02T08:10:37.023Z,989.261
2023-03-02T08:11:36.963Z,989.309
2023-03-02T08:12:36.990Z,989.291
2023-03-02T08:13:36.906Z,989.258
2023-03-02T08:14:36.922Z,989.385
2023-03-02T08:15:36.850Z,989.377
2023-03-02T08:16:36.049Z,989.368
2023-03-02T08:17:36.145Z,989.345
2023-03-02T08:18:37.068Z,989.241
2023-03-02T08:19:36.814Z,989.354
2023-03-02T08:20:36.854Z,989.213
2023-03-02T08:21:36.778Z,989.291
2023-03-02T08:22:36.926Z,989.299
2023-03-02T08:23:36.981Z,989.281
2023-03-02T08:24:37.009Z,989.286
2023-03-02T08:25:36.877Z,989.227
2023-03-02T08:26:36.695Z,989.400
2023-03-02T08:27:36.829Z,989.323
2023-03-02T08:28:36.830Z,989.267
2023-03-02T08:29:36.778Z,989.334
2023-03-02T08:30:36.832Z,989.246
2023-03-02T08:31:37.084Z,989.295
2023-03-02T08:32:36.690Z,989.243
2023-03-02T08:33:36.646Z,989.236
2023-03-02T08:34:36.693Z,989.348
2023-03-02T08:35:36.677Z,989.301
2023-03-02T08:36:36.897Z,989.251
2023-03-02T08:37:36.916Z,989.253
2023-03-02T08:38:36.870Z,989.276
2023-03-02T08:39:36.936Z,989.312
2023-03-02T08:40:36.181Z,989.235
2023-03-02T08:41:36.325Z,989.249
2023-03-02T08:42:36.334Z,989.121
2023-03-02T08:43:36.449Z,989.204
2023-03-02T08:44:36.565Z,989.234
2023-03-02T08:45:36.588Z,989.105
2023-03-02T08:46:36.726Z,989.165
2023-03-02T08:47:36.670Z,989.175
2023-03-02T08:48:36.652Z,989.262
2023-03-02T08:49:36.665Z,989.159
2023-03-02T08:50:36.670Z,989.143
2023-03-02T08:51:36.629Z,989.097
2023-03-02T08:52:36.583Z,989.208
2023-03-02T08:53:36.577Z,989.251
2023-03-02T08:54:36.553Z,989.066
2023-03-02T08:55:36.938Z,989.129
2023-03-02T08:56:37.100Z,989.156
2023-03-02T08:57:36.199Z,989.172
2023-03-02T08:58:36.194Z,989.175
2023-03-02T08:59:36.184Z,989.134
2023-03-02T09:00:36.210Z,989.219
2023-03-02T09:01:36.804Z,989.156
2023-03-02T09:02:37.022Z,989.049
2023-03-02T09:03:36.960Z,988.945
2023-03-02T09:04:36.296Z,989.004
2023-03-02T09:05:36.562Z,989.155
2023-03-02T09:06:36.457Z,989.080
2023-03-02T09:07:36.412Z,989.170
2023-03-02T09:08:36.325Z,989.083
2023-03-02T09:09:36.358Z,988.956
2023-03-02T09:10:36.360Z,989.001
2023-03-02T09:11:36.335Z,989.093
2023-03-02T09:12:36.245Z,989.135
2023-03-02T09:13:36.197Z,989.125
2023-03-02T09:14:36.193Z,989.061
2023-03-02T09:15:36.201Z,989.102
2023-03-02T09:16:36.467Z,989.097
2023-03-02T09:17:36.598Z,989.180
2023-03-02T09:18:36.548Z,989.201
2023-03-02T09:19:36.586Z,989.092
2023-03-02T09:20:36.537Z,989.241
2023-03-02T09:21:36.492Z,989.107
2023-03-02T09:22:36.389Z,989.107
2023-03-02T09:23:36.317Z,989.077
2023-03-02T09:24:36.469Z,989.161
2023-03-02T09:25:36.453Z,989.107
2023-03-02T09:26:36.406Z,989.016
2023-03-02T09:27:36.372Z,989.125
2023-03-02T09:28:36.394Z,989.175
2023-03-02T09:29:36.398Z,989.248
2023-03-02T09:30:36.292Z,989.101
2023-03-02T09:31:36.814Z,989.071
2023-03-02T09:32:36.902Z,989.115
2023-03-02T09:33:36.422Z,989.153
2023-03-02T09:34:36.362Z,989.177
2023-03-02T09:35:36.307Z,989.061
2023-03-02T09:36:36.290Z,989.251
2023-03-02T09:37:36.220Z,989.179
2023-03-02T09:38:36.478Z,989.149
2023-03-02T09:39:36.544Z,989.198
2023-03-02T09:40:36.597Z,989.214
2023-03-02T09:41:36.637Z,989.187
2023-03-02T09:42:43.754Z,989.202
2023-03-02T09:43:36.460Z,989.168
2023-03-02T09:44:36.473Z,989.179
2023-03-02T09:45:36.504Z,989.195
2023-03-02T09:46:36.745Z,989.207
2023-03-02T09:47:36.837Z,989.194
2023-03-02T09:48:36.856Z,989.183
2023-03-02T09:49:36.758Z,989.183
2023-03-02T09:50:36.679Z,989.143
2023-03-02T09:51:36.585Z,989.204
2023-03-02T09:52:36.593Z,989.108
2023-03-02T09:53:36.517Z,989.033
2023-03-02T09:54:36.682Z,989.039
2023-03-02T09:55:36.655Z,988.961
2023-03-02T09:56:36.734Z,989.015
2023-03-02T09:57:36.722Z,989.073
2023-03-02T09:58:36.643Z,988.992
2023-03-02T09:59:36.686Z,989.025
2023-03-02T10:00:36.691Z,989.084
2023-03-02T10:01:37.018Z,989.111
2023-03-02T10:02:36.125Z,989.101
2023-03-02T10:03:36.458Z,988.992
2023-03-02T10:04:36.158Z,989.032
2023-03-02T10:05:36.202Z,989.098
2023-03-02T10:06:36.222Z,989.055
2023-03-02T10:07:36.162Z,989.074
2023-03-02T10:08:36.464Z,989.033
2023-03-02T10:09:36.460Z,989.059
2023-03-02T10:10:36.465Z,989.068
2023-03-02T10:11:36.429Z,989.070
2023-03-02T10:12:36.407Z,988.993
2023-03-02T10:13:36.445Z,989.064
2023-03-02T10:14:36.414Z,989.105
2023-03-02T10:15:36.473Z,988.990
2023-03-02T10:16:37.201Z,989.084
2023-03-02T10:17:36.407Z,989.124
2023-03-02T10:18:36.417Z,988.999
2023-03-02T10:19:36.594Z,989.156
2023-03-02T10:20:36.559Z,988.950
2023-03-02T10:21:36.570Z,989.037
2023-03-02T10:22:36.525Z,988.975
2023-03-02T10:23:36.574Z,988.995
2023-03-02T10:24:36.569Z,989.001
2023-03-02T10:25:36.520Z,989.109
2023-03-02T10:26:36.526Z,989.105
2023-03-02T10:27:36.475Z,989.015
2023-03-02T10:28:36.782Z,988.982
2023-03-02T10:29:36.768Z,989.064
2023-03-02T10:30:36.741Z,989.098
2023-03-02T10:31:36.111Z,989.123
2023-03-02T10:32:36.230Z,989.170
2023-03-02T10:33:36.220Z,989.162
2023-03-02T10:34:36.202Z,989.147
2023-03-02T10:35:36.332Z,989.177
2023-03-02T10:36:36.800Z,989.175
2023-03-02T10:37:36.997Z,989.150
2023-03-02T10:38:36.913Z,989.203
2023-03-02T10:39:36.897Z,989.171
2023-03-02T10:40:36.884Z,989.267
2023-03-02T10:41:36.865Z,989.117
2023-03-02T10:42:36.957Z,989.128
2023-03-02T10:43:37.007Z,989.193
2023-03-02T10:44:36.928Z,989.371
2023-03-02T10:45:36.973Z,989.308
2023-03-02T10:46:36.537Z,989.170
2023-03-02T10:47:36.681Z,989.208
2023-03-02T10:48:40.843Z,989.154
2023-03-02T10:49:37.052Z,989.267
2023-03-02T10:50:36.917Z,989.209
2023-03-02T10:51:37.014Z,989.233
2023-03-02T10:52:37.034Z,989.197
2023-03-02T10:53:36.626Z,989.249
2023-03-02T10:54:36.625Z,989.075
2023-03-02T10:55:36.598Z,989.059
2023-03-02T10:56:36.513Z,989.136
2023-03-02T10:57:36.523Z,989.010
2023-03-02T10:58:36.455Z,989.148
2023-03-02T10:59:36.689Z,989.012
2023-03-02T11:00:36.646Z,989.062
2023-03-02T11:01:36.721Z,989.149
2023-03-02T11:02:36.794Z,989.035
2023-03-02T11:03:36.726Z,989.075
2023-03-02T11:04:36.909Z,988.947
2023-03-02T11:05:36.675Z,988.956
2023-03-02T11:06:36.663Z,989.031
2023-03-02T11:07:36.799Z,988.973
2023-03-02T11:08:36.713Z,988.925
2023-03-02T11:09:36.670Z,988.978
2023-03-02T11:10:36.589Z,988.945
2023-03-02T11:11:36.368Z,988.815
2023-03-02T11:12:36.757Z,988.911
2023-03-02T11:13:36.700Z,988.897
2023-03-02T11:14:36.697Z,988.905
2023-03-02T11:15:36.676Z,988.966
2023-03-02T11:16:36.865Z,988.969
2023-03-02T11:17:36.053Z,988.825
2023-03-02T11:18:36.041Z,988.850
2023-03-02T11:19:36.977Z,988.795
2023-03-02T11:20:36.937Z,988.908
2023-03-02T11:21:36.915Z,988.876
2023-03-02T11:22:36.890Z,988.931
2023-03-02T11:23:36.880Z,988.842
2023-03-02T11:24:36.935Z,988.895
2023-03-02T11:25:36.853Z,988.877
2023-03-02T11:26:36.803Z,988.829
2023-03-02T11:27:36.791Z,988.971
2023-03-02T11:28:36.743Z,988.910
2023-03-02T11:29:36.782Z,988.967
2023-03-02T11:30:36.710Z,988.824
2023-03-02T11:31:37.276Z,988.839
2023-03-02T11:32:36.892Z,988.905
2023-03-02T11:33:36.163Z,988.868
2023-03-02T11:34:36.558Z,988.998
2023-03-02T11:35:36.413Z,988.930
2023-03-02T11:36:36.446Z,988.840
2023-03-02T11:37:36.558Z,988.781
2023-03-02T11:38:36.424Z,988.896
2023-03-02T11:39:39.179Z,988.875
2023-03-02T11:40:36.077Z,988.818
2023-03-02T11:41:37.040Z,988.754
2023-03-02T11:42:36.403Z,988.752
2023-03-02T11:43:36.321Z,988.801
2023-03-02T11:44:36.266Z,988.849
2023-03-02T11:45:36.769Z,988.774
2023-03-02T11:47:38.649Z,988.659
2023-03-02T11:48:38.510Z,988.762
2023-03-02T11:49:38.429Z,988.721
2023-03-02T11:50:38.340Z,988.812
2023-03-02T11:51:42.343Z,988.728
2023-03-02T11:52:38.224Z,988.686
2023-03-02T11:53:38.384Z,988.700
2023-03-02T11:54:38.565Z,988.656
2023-03-02T11:55:38.644Z,988.601
2023-03-02T11:56:38.724Z,988.619
2023-03-02T11:57:39.744Z,988.599
2023-03-02T11:58:38.768Z,988.690
2023-03-02T11:59:38.946Z,988.644
2023-03-02T12:00:38.988Z,988.651
2023-03-02T12:01:38.154Z,988.714
2023-03-02T12:02:38.254Z,988.652
2023-03-02T12:03:38.249Z,988.651
2023-03-02T12:04:38.215Z,988.585
2023-03-02T12:05:38.321Z,988.584
2023-03-02T12:06:38.264Z,988.570
2023-03-02T12:07:38.240Z,988.631
2023-03-02T12:08:38.192Z,988.521